createdAt,value
2023-06-30T00:00:48.834Z,18.17
2023-06-30T00:01:52.055Z,18.17
2023-06-30T00:02:57.385Z,18.14
2023-06-30T00:04:00.864Z,18.12
2023-06-30T00:05:04.712Z,18.08
2023-06-30T00:06:08.281Z,18.07
2023-06-30T00:07:12.002Z,18.08
2023-06-30T00:08:16.005Z,18.08
2023-06-30T00:09:22.427Z,18.08
2023-06-30T00:10:25.567Z,18.09
2023-06-30T00:11:29.377Z,18.07
2023-06-30T00:12:32.884Z,18.06
2023-06-30T00:13:36.670Z,18.05
2023-06-30T00:14:40.517Z,18.07
2023-06-30T00:15:44.663Z,18.06
2023-06-30T00:16:49.019Z,18.03
2023-06-30T00:17:54.729Z,18.01
2023-06-30T00:18:58.780Z,18.00
2023-06-30T00:20:07.423Z,18.00
2023-06-30T00:21:10.616Z,17.97
2023-06-30T00:22:14.372Z,17.95
2023-06-30T00:23:18.019Z,17.95
2023-06-30T00:24:21.569Z,17.94
2023-06-30T00:25:24.691Z,17.93
2023-06-30T00:26:27.758Z,17.91
2023-06-30T00:27:31.119Z,17.87
2023-06-30T00:28:34.983Z,17.85
2023-06-30T00:29:38.466Z,17.83
2023-06-30T00:30:42.022Z,17.81
2023-06-30T00:31:45.871Z,17.83
2023-06-30T00:32:49.425Z,17.83
2023-06-30T00:33:53.912Z,17.80
2023-06-30T00:34:57.283Z,17.79
2023-06-30T00:36:00.660Z,17.79
2023-06-30T00:37:05.666Z,17.83
2023-06-30T00:38:09.313Z,17.81
2023-06-30T00:39:12.514Z,17.81
2023-06-30T00:40:18.631Z,17.80
2023-06-30T00:41:22.382Z,17.80
2023-06-30T00:42:25.803Z,17.80
2023-06-30T00:43:31.073Z,17.81
2023-06-30T00:44:34.474Z,17.82
2023-06-30T00:45:38.938Z,17.76
2023-06-30T00:46:42.899Z,17.78
2023-06-30T00:47:46.546Z,17.78
2023-06-30T00:48:51.069Z,17.74
2023-06-30T00:49:54.980Z,17.72
2023-06-30T00:50:58.578Z,17.69
2023-06-30T00:52:04.626Z,17.68
2023-06-30T00:53:08.002Z,17.70
2023-06-30T00:54:11.815Z,17.70
2023-06-30T00:55:15.422Z,17.68
2023-06-30T00:56:19.837Z,17.65
2023-06-30T00:57:23.512Z,17.63
2023-06-30T00:58:27.566Z,17.60
2023-06-30T00:59:31.333Z,17.58
2023-06-30T01:00:34.873Z,17.62
2023-06-30T01:01:55.685Z,17.62
2023-06-30T01:03:27.184Z,17.61
2023-06-30T01:04:33.485Z,17.61
2023-06-30T01:05:47.973Z,17.62
2023-06-30T01:07:25.507Z,17.61
2023-06-30T01:08:52.417Z,17.62
2023-06-30T01:10:24.789Z,17.59
2023-06-30T01:11:28.795Z,17.57
2023-06-30T01:12:32.905Z,17.57
2023-06-30T01:13:36.056Z,17.56
2023-06-30T01:14:40.451Z,17.55
2023-06-30T01:15:45.857Z,17.56
2023-06-30T01:16:50.334Z,17.54
2023-06-30T01:17:56.293Z,17.54
2023-06-30T01:19:03.536Z,17.53
2023-06-30T01:20:08.470Z,17.54
2023-06-30T01:21:15.234Z,17.54
2023-06-30T01:22:43.547Z,17.51
2023-06-30T01:23:56.048Z,17.51
2023-06-30T01:25:01.486Z,17.46
2023-06-30T01:26:07.333Z,17.48
2023-06-30T01:27:14.591Z,17.46
2023-06-30T01:28:19.116Z,17.45
2023-06-30T01:29:23.125Z,17.46
2023-06-30T01:30:31.610Z,17.46
2023-06-30T01:31:35.046Z,17.45
2023-06-30T01:32:39.336Z,17.45
2023-06-30T01:33:43.372Z,17.42
2023-06-30T01:34:47.046Z,17.40
2023-06-30T01:35:50.463Z,17.37
2023-06-30T01:36:54.159Z,17.36
2023-06-30T01:37:57.987Z,17.36
2023-06-30T01:39:01.886Z,17.36
2023-06-30T01:40:10.000Z,17.35
2023-06-30T01:41:13.459Z,17.33
2023-06-30T01:42:16.971Z,17.32
2023-06-30T01:43:20.388Z,17.29
2023-06-30T01:44:25.798Z,17.29
2023-06-30T01:45:29.613Z,17.28
2023-06-30T01:46:32.810Z,17.29
2023-06-30T01:47:36.725Z,17.29
2023-06-30T01:48:40.454Z,17.24
2023-06-30T01:49:43.988Z,17.26
2023-06-30T01:50:47.508Z,17.25
2023-06-30T01:51:52.090Z,17.26
2023-06-30T01:52:55.420Z,17.27
2023-06-30T01:53:58.668Z,17.28
2023-06-30T01:55:02.498Z,17.26
2023-06-30T01:56:06.156Z,17.24
2023-06-30T01:57:09.726Z,17.22
2023-06-30T01:58:14.000Z,17.22
2023-06-30T01:59:17.988Z,17.23
2023-06-30T02:00:21.816Z,17.23
2023-06-30T02:01:25.216Z,17.23
2023-06-30T02:02:29.133Z,17.25
2023-06-30T02:03:33.177Z,17.25
2023-06-30T02:04:36.627Z,17.23
2023-06-30T02:05:40.246Z,17.23
2023-06-30T02:06:45.165Z,17.20
2023-06-30T02:07:48.922Z,17.17
2023-06-30T02:08:53.093Z,17.17
2023-06-30T02:09:56.927Z,17.14
2023-06-30T02:11:04.882Z,17.13
2023-06-30T02:12:08.315Z,17.11
2023-06-30T02:13:11.425Z,17.12
2023-06-30T02:14:14.949Z,17.11
2023-06-30T02:15:18.533Z,17.12
2023-06-30T02:16:21.996Z,17.14
2023-06-30T02:17:29.733Z,17.14
2023-06-30T02:18:33.347Z,17.16
2023-06-30T02:19:37.476Z,17.18
2023-06-30T02:20:40.648Z,17.16
2023-06-30T02:21:44.441Z,17.14
2023-06-30T02:22:47.492Z,17.16
2023-06-30T02:23:51.707Z,17.13
2023-06-30T02:24:58.661Z,17.10
2023-06-30T02:26:02.268Z,17.09
2023-06-30T02:27:11.175Z,17.06
2023-06-30T02:28:14.978Z,17.05
2023-06-30T02:29:18.802Z,17.05
2023-06-30T02:30:22.650Z,17.08
2023-06-30T02:31:27.395Z,17.06
2023-06-30T02:32:31.569Z,17.06
2023-06-30T02:33:34.589Z,17.05
2023-06-30T02:34:39.074Z,17.05
2023-06-30T02:35:43.864Z,17.04
2023-06-30T02:36:51.534Z,17.05
2023-06-30T02:37:55.050Z,17.02
2023-06-30T02:39:00.040Z,17.03
2023-06-30T02:40:03.538Z,17.02
2023-06-30T02:41:07.487Z,17.02
2023-06-30T02:42:11.020Z,17.00
2023-06-30T02:43:14.631Z,17.00
2023-06-30T02:44:18.357Z,16.99
2023-06-30T02:45:22.668Z,16.96
2023-06-30T02:46:26.836Z,16.94
2023-06-30T02:47:30.083Z,16.95
2023-06-30T02:48:33.502Z,16.93
2023-06-30T02:49:37.079Z,16.93
2023-06-30T02:50:40.837Z,16.92
2023-06-30T02:51:44.515Z,16.92
2023-06-30T02:52:48.009Z,16.91
2023-06-30T02:53:51.963Z,16.91
2023-06-30T02:54:55.523Z,16.91
2023-06-30T02:55:59.374Z,16.87
2023-06-30T02:57:02.947Z,16.88
2023-06-30T02:58:06.648Z,16.89
2023-06-30T02:59:11.841Z,16.89
2023-06-30T03:00:15.976Z,16.88
2023-06-30T03:01:23.360Z,16.85
2023-06-30T03:02:27.617Z,16.88
2023-06-30T03:03:31.322Z,16.88
2023-06-30T03:04:35.381Z,16.87
2023-06-30T03:05:39.066Z,16.86
2023-06-30T03:06:43.542Z,16.85
2023-06-30T03:07:48.422Z,16.84
2023-06-30T03:08:55.036Z,16.83
2023-06-30T03:10:02.654Z,16.89
2023-06-30T03:11:06.331Z,16.85
2023-06-30T03:12:10.554Z,16.83
2023-06-30T03:13:14.550Z,16.81
2023-06-30T03:14:18.044Z,16.83
2023-06-30T03:15:21.954Z,16.82
2023-06-30T03:16:26.320Z,16.81
2023-06-30T03:17:29.996Z,16.78
2023-06-30T03:18:33.394Z,16.79
2023-06-30T03:19:36.785Z,16.78
2023-06-30T03:20:40.562Z,16.80
2023-06-30T03:21:43.937Z,16.78
2023-06-30T03:22:48.056Z,16.77
2023-06-30T03:23:51.704Z,16.78
2023-06-30T03:24:58.495Z,16.77
2023-06-30T03:26:01.914Z,16.75
2023-06-30T03:27:06.699Z,16.77
2023-06-30T03:28:10.091Z,16.80
2023-06-30T03:29:13.411Z,16.78
2023-06-30T03:30:18.348Z,16.79
2023-06-30T03:31:24.321Z,16.79
2023-06-30T03:32:28.293Z,16.80
2023-06-30T03:33:31.961Z,16.78
2023-06-30T03:34:35.497Z,16.78
2023-06-30T03:35:39.091Z,16.76
2023-06-30T03:36:42.961Z,16.76
2023-06-30T03:37:46.920Z,16.76
2023-06-30T03:38:50.411Z,16.73
2023-06-30T03:39:53.609Z,16.78
2023-06-30T03:40:57.864Z,16.77
2023-06-30T03:42:06.611Z,16.76
2023-06-30T03:43:10.304Z,16.77
2023-06-30T03:44:15.513Z,16.75
2023-06-30T03:45:19.073Z,16.75
2023-06-30T03:46:22.272Z,16.72
2023-06-30T03:47:25.605Z,16.73
2023-06-30T03:48:29.348Z,16.73
2023-06-30T03:49:33.109Z,16.73
2023-06-30T03:50:36.828Z,16.72
2023-06-30T03:51:40.444Z,16.75
2023-06-30T03:52:43.966Z,16.71
2023-06-30T03:53:47.715Z,16.70
2023-06-30T03:54:52.657Z,16.70
2023-06-30T03:55:55.911Z,16.66
2023-06-30T03:56:59.923Z,16.64
2023-06-30T03:58:03.924Z,16.63
2023-06-30T03:59:07.698Z,16.62
2023-06-30T04:00:13.913Z,16.63
2023-06-30T04:01:17.579Z,16.61
2023-06-30T04:02:21.185Z,16.63
2023-06-30T04:03:27.511Z,16.60
2023-06-30T04:04:31.705Z,16.59
2023-06-30T04:05:35.236Z,16.60
2023-06-30T04:06:38.771Z,16.60
2023-06-30T04:07:42.330Z,16.59
2023-06-30T04:08:46.686Z,16.57
2023-06-30T04:09:50.150Z,16.54
2023-06-30T04:10:53.458Z,16.55
2023-06-30T04:11:57.505Z,16.54
2023-06-30T04:13:00.917Z,16.52
2023-06-30T04:14:04.562Z,16.52
2023-06-30T04:15:09.727Z,16.51
2023-06-30T04:16:13.430Z,16.50
2023-06-30T04:17:16.725Z,16.50
2023-06-30T04:18:19.897Z,16.50
2023-06-30T04:19:23.516Z,16.50
2023-06-30T04:20:27.745Z,16.47
2023-06-30T04:21:31.165Z,16.47
2023-06-30T04:22:34.373Z,16.47
2023-06-30T04:23:41.446Z,16.48
2023-06-30T04:24:44.566Z,16.46
2023-06-30T04:25:48.154Z,16.45
2023-06-30T04:26:51.642Z,16.43
2023-06-30T04:27:54.779Z,16.41
2023-06-30T04:28:58.555Z,16.42
2023-06-30T04:30:02.528Z,16.40
2023-06-30T04:31:07.064Z,16.40
2023-06-30T04:32:10.680Z,16.40
2023-06-30T04:33:14.434Z,16.41
2023-06-30T04:34:17.946Z,16.41
2023-06-30T04:35:27.361Z,16.41
2023-06-30T04:36:31.131Z,16.38
2023-06-30T04:37:34.794Z,16.33
2023-06-30T04:38:38.295Z,16.38
2023-06-30T04:39:41.869Z,16.37
2023-06-30T04:40:45.360Z,16.37
2023-06-30T04:41:48.973Z,16.35
2023-06-30T04:42:52.470Z,16.33
2023-06-30T04:43:56.266Z,16.30
2023-06-30T04:44:59.494Z,16.28
2023-06-30T04:46:02.804Z,16.26
2023-06-30T04:47:06.138Z,16.31
2023-06-30T04:48:09.714Z,16.27
2023-06-30T04:49:13.455Z,16.25
2023-06-30T04:50:17.226Z,16.23
2023-06-30T04:51:21.149Z,16.23
2023-06-30T04:52:24.907Z,16.23
2023-06-30T04:53:28.000Z,16.20
2023-06-30T04:54:32.913Z,16.19
2023-06-30T04:55:36.719Z,16.20
2023-06-30T04:56:40.428Z,16.18
2023-06-30T04:57:43.763Z,16.17
2023-06-30T04:58:47.196Z,16.15
2023-06-30T04:59:54.035Z,16.16
2023-06-30T05:00:58.361Z,16.15
2023-06-30T05:02:02.327Z,16.15
2023-06-30T05:03:06.052Z,16.12
2023-06-30T05:04:09.861Z,16.13
2023-06-30T05:05:14.235Z,16.16
2023-06-30T05:06:17.608Z,16.15
2023-06-30T05:07:21.258Z,16.15
2023-06-30T05:08:24.644Z,16.15
2023-06-30T05:09:28.010Z,16.18
2023-06-30T05:10:31.523Z,16.19
2023-06-30T05:11:34.867Z,16.20
2023-06-30T05:12:38.345Z,16.20
2023-06-30T05:13:41.735Z,16.20
2023-06-30T05:14:45.281Z,16.23
2023-06-30T05:15:48.486Z,16.22
2023-06-30T05:16:52.830Z,16.25
2023-06-30T05:17:56.722Z,16.23
2023-06-30T05:18:59.953Z,16.22
2023-06-30T05:20:07.212Z,16.23
2023-06-30T05:21:11.089Z,16.22
2023-06-30T05:22:14.608Z,16.23
2023-06-30T05:23:18.434Z,16.21
2023-06-30T05:24:21.872Z,16.25
2023-06-30T05:25:25.068Z,16.25
2023-06-30T05:26:28.448Z,16.26
2023-06-30T05:27:32.849Z,16.29
2023-06-30T05:28:38.892Z,16.31
2023-06-30T05:29:42.625Z,16.33
2023-06-30T05:30:45.977Z,16.35
2023-06-30T05:31:49.277Z,16.37
2023-06-30T05:32:52.573Z,16.39
2023-06-30T05:33:55.886Z,16.40
2023-06-30T05:34:59.414Z,16.42
2023-06-30T05:36:03.182Z,16.44
2023-06-30T05:37:06.715Z,16.48
2023-06-30T05:38:10.371Z,16.49
2023-06-30T05:39:14.333Z,16.51
2023-06-30T05:40:18.168Z,16.53
2023-06-30T05:41:21.689Z,16.59
2023-06-30T05:42:24.987Z,16.65
2023-06-30T05:43:28.626Z,16.69
2023-06-30T05:44:32.532Z,16.75
2023-06-30T05:45:36.310Z,16.82
2023-06-30T05:46:40.188Z,16.90
2023-06-30T05:47:43.998Z,17.02
2023-06-30T05:48:47.769Z,17.24
2023-06-30T05:49:51.448Z,17.54
2023-06-30T05:50:54.942Z,17.90
2023-06-30T05:51:58.053Z,18.32
2023-06-30T05:53:01.857Z,18.75
2023-06-30T05:54:05.334Z,19.20
2023-06-30T05:55:09.547Z,19.64
2023-06-30T05:56:13.146Z,20.07
2023-06-30T05:57:16.223Z,20.46
2023-06-30T05:58:19.189Z,20.83
2023-06-30T05:59:22.436Z,21.16
2023-06-30T06:00:26.696Z,21.50
2023-06-30T06:01:30.006Z,21.83
2023-06-30T06:02:34.825Z,22.20
2023-06-30T06:03:38.553Z,22.53
2023-06-30T06:04:42.039Z,22.86
2023-06-30T06:05:46.393Z,23.18
2023-06-30T06:06:50.363Z,23.51
2023-06-30T06:07:53.533Z,23.84
2023-06-30T06:08:56.623Z,24.15
2023-06-30T06:10:00.157Z,24.39
2023-06-30T06:11:04.061Z,24.64
2023-06-30T06:12:08.359Z,24.90
2023-06-30T06:13:11.934Z,25.11
2023-06-30T06:14:15.044Z,25.38
2023-06-30T06:15:18.062Z,25.59
2023-06-30T06:16:22.197Z,25.80
2023-06-30T06:17:25.375Z,25.99
2023-06-30T06:18:28.992Z,26.21
2023-06-30T06:19:32.735Z,26.44
2023-06-30T06:20:36.474Z,26.63
2023-06-30T06:21:39.961Z,26.88
2023-06-30T06:22:43.080Z,27.11
2023-06-30T06:23:46.960Z,27.31
2023-06-30T06:24:50.438Z,27.46
2023-06-30T06:25:53.590Z,27.67
2023-06-30T06:26:57.129Z,27.79
2023-06-30T06:28:00.841Z,27.99
2023-06-30T06:29:04.875Z,28.18
2023-06-30T06:30:08.749Z,28.44
2023-06-30T06:31:11.973Z,28.59
2023-06-30T06:32:15.383Z,28.73
2023-06-30T06:33:18.932Z,28.80
2023-06-30T06:34:22.605Z,28.92
2023-06-30T06:35:26.237Z,29.03
2023-06-30T06:36:29.631Z,29.17
2023-06-30T06:37:33.313Z,29.34
2023-06-30T06:38:36.844Z,29.32
2023-06-30T06:39:40.364Z,29.42
2023-06-30T06:40:44.044Z,29.53
2023-06-30T06:41:47.160Z,29.52
2023-06-30T06:42:53.446Z,29.63
2023-06-30T06:44:03.024Z,29.74
2023-06-30T06:45:06.889Z,29.86
2023-06-30T06:46:10.417Z,29.92
2023-06-30T06:47:50.654Z,30.05
2023-06-30T06:48:54.386Z,30.28
2023-06-30T06:49:58.036Z,30.58
2023-06-30T06:51:05.031Z,30.83
2023-06-30T06:52:08.409Z,31.08
2023-06-30T06:53:11.383Z,31.28
2023-06-30T06:54:15.077Z,31.47
2023-06-30T06:55:18.546Z,31.63
2023-06-30T06:56:22.351Z,31.72
2023-06-30T06:57:25.629Z,31.87
2023-06-30T06:58:31.754Z,32.06
2023-06-30T06:59:35.274Z,32.21
2023-06-30T07:00:38.550Z,32.46
2023-06-30T07:01:42.244Z,32.55
2023-06-30T07:02:46.246Z,32.66
2023-06-30T07:03:49.987Z,32.53
2023-06-30T07:04:53.708Z,32.63
2023-06-30T07:05:58.974Z,32.69
2023-06-30T07:07:02.299Z,32.63
2023-06-30T07:08:06.811Z,32.57
2023-06-30T07:09:10.283Z,32.55
2023-06-30T07:10:14.161Z,32.54
2023-06-30T07:11:17.234Z,32.56
2023-06-30T07:12:20.571Z,32.64
2023-06-30T07:13:23.975Z,32.69
2023-06-30T07:14:27.544Z,32.77
2023-06-30T07:15:31.483Z,32.88
2023-06-30T07:16:34.846Z,33.08
2023-06-30T07:17:38.773Z,33.27
2023-06-30T07:18:42.286Z,33.46
2023-06-30T07:19:45.899Z,33.58
2023-06-30T07:20:49.354Z,33.75
2023-06-30T07:21:53.104Z,33.93
2023-06-30T07:22:57.956Z,34.18
2023-06-30T07:24:01.338Z,34.17
2023-06-30T07:25:05.387Z,34.29
2023-06-30T07:26:08.930Z,34.49
2023-06-30T07:27:12.383Z,34.69
2023-06-30T07:28:16.017Z,34.83
2023-06-30T07:29:19.836Z,35.04
2023-06-30T07:30:25.220Z,35.06
2023-06-30T07:31:32.595Z,35.11
2023-06-30T07:32:36.239Z,35.04
2023-06-30T07:33:39.549Z,35.19
2023-06-30T07:34:42.630Z,35.35
2023-06-30T07:35:46.875Z,35.45
2023-06-30T07:36:50.601Z,35.51
2023-06-30T07:37:53.873Z,35.59
2023-06-30T07:38:57.249Z,35.63
2023-06-30T07:40:12.273Z,35.51
2023-06-30T07:41:20.082Z,34.99
2023-06-30T07:42:23.670Z,34.93
2023-06-30T07:43:27.205Z,35.04
2023-06-30T07:44:30.550Z,35.22
2023-06-30T07:45:34.317Z,35.34
2023-06-30T07:46:37.569Z,35.22
2023-06-30T07:47:44.629Z,35.03
2023-06-30T07:48:47.775Z,34.57
2023-06-30T07:49:51.132Z,34.43
2023-06-30T07:51:07.850Z,34.58
2023-06-30T07:52:13.305Z,34.86
2023-06-30T07:53:17.040Z,34.93
2023-06-30T07:54:21.688Z,35.09
2023-06-30T07:55:25.115Z,35.28
2023-06-30T07:56:28.964Z,35.53
2023-06-30T07:57:32.390Z,35.65
2023-06-30T07:58:35.911Z,35.65
2023-06-30T07:59:39.345Z,35.71
2023-06-30T08:00:43.022Z,35.96
2023-06-30T08:01:46.419Z,36.25
2023-06-30T08:02:49.980Z,36.51
2023-06-30T08:03:53.876Z,36.79
2023-06-30T08:04:57.274Z,36.95
2023-06-30T08:06:01.064Z,37.20
2023-06-30T08:07:06.178Z,37.37
2023-06-30T08:08:10.100Z,37.26
2023-06-30T08:09:13.718Z,37.26
2023-06-30T08:10:17.125Z,37.46
2023-06-30T08:11:20.611Z,37.68
2023-06-30T08:12:24.248Z,37.86
2023-06-30T08:13:28.095Z,38.06
2023-06-30T08:14:31.706Z,38.12
2023-06-30T08:15:34.906Z,38.07
2023-06-30T08:16:38.300Z,38.16
2023-06-30T08:17:54.722Z,38.17
2023-06-30T08:19:01.898Z,38.25
2023-06-30T08:20:05.742Z,38.36
2023-06-30T08:21:09.087Z,38.48
2023-06-30T08:22:15.900Z,38.72
2023-06-30T08:23:19.925Z,38.95
2023-06-30T08:24:24.528Z,39.02
2023-06-30T08:25:27.961Z,39.15
2023-06-30T08:26:31.610Z,39.35
2023-06-30T08:27:35.061Z,39.55
2023-06-30T08:28:38.918Z,39.73
2023-06-30T08:29:42.959Z,39.71
2023-06-30T08:30:45.983Z,39.78
2023-06-30T08:31:49.232Z,39.85
2023-06-30T08:32:52.540Z,39.98
2023-06-30T08:33:56.032Z,40.12
2023-06-30T08:34:59.351Z,40.22
2023-06-30T08:36:03.606Z,40.23
2023-06-30T08:37:07.801Z,39.59
2023-06-30T08:38:11.589Z,39.50
2023-06-30T08:39:15.419Z,39.66
2023-06-30T08:40:28.652Z,39.80
2023-06-30T08:41:32.118Z,39.81
2023-06-30T08:42:38.088Z,39.86
2023-06-30T08:43:41.434Z,39.74
2023-06-30T08:44:48.169Z,39.95
2023-06-30T08:45:51.440Z,40.18
2023-06-30T08:46:55.166Z,40.32
2023-06-30T08:48:04.386Z,40.41
2023-06-30T08:49:07.715Z,40.57
2023-06-30T08:50:11.339Z,40.72
2023-06-30T08:51:17.293Z,40.88
2023-06-30T08:52:20.834Z,41.06
2023-06-30T08:53:25.362Z,41.26
2023-06-30T08:54:33.248Z,41.42
2023-06-30T08:55:36.263Z,41.49
2023-06-30T08:56:41.971Z,41.53
2023-06-30T08:57:45.728Z,41.43
2023-06-30T08:58:49.280Z,41.20
2023-06-30T08:59:53.068Z,41.09
2023-06-30T09:00:57.703Z,41.09
2023-06-30T09:02:01.671Z,41.09
2023-06-30T09:03:07.940Z,40.92
2023-06-30T09:04:11.806Z,40.95
2023-06-30T09:05:16.059Z,40.87
2023-06-30T09:06:19.883Z,40.92
2023-06-30T09:07:28.081Z,40.91
2023-06-30T09:08:58.250Z,41.13
2023-06-30T09:10:05.232Z,41.04
2023-06-30T09:11:10.305Z,41.09
2023-06-30T09:12:14.368Z,40.83
2023-06-30T09:13:21.933Z,40.82
2023-06-30T09:14:25.834Z,40.82
2023-06-30T09:15:28.789Z,40.83
2023-06-30T09:16:32.776Z,40.86
2023-06-30T09:17:36.070Z,40.76
2023-06-30T09:18:39.441Z,40.67
2023-06-30T09:19:42.887Z,40.52
2023-06-30T09:20:46.341Z,40.47
2023-06-30T09:21:50.405Z,40.58
2023-06-30T09:22:57.093Z,40.63
2023-06-30T09:24:00.930Z,40.42
2023-06-30T09:25:05.932Z,40.66
2023-06-30T09:26:16.091Z,40.81
2023-06-30T09:27:20.302Z,40.97
2023-06-30T09:28:23.427Z,41.06
2023-06-30T09:29:27.262Z,41.29
2023-06-30T09:30:34.451Z,41.42
2023-06-30T09:31:38.970Z,41.46
2023-06-30T09:32:43.239Z,41.47
2023-06-30T09:33:50.107Z,41.20
2023-06-30T09:34:56.124Z,41.30
2023-06-30T09:36:00.787Z,41.46
2023-06-30T09:37:03.932Z,41.36
2023-06-30T09:38:17.595Z,40.65
2023-06-30T09:39:21.266Z,40.60
2023-06-30T09:40:27.678Z,40.93
2023-06-30T09:41:31.447Z,40.89
2023-06-30T09:42:36.055Z,40.98
2023-06-30T09:43:39.476Z,40.97
2023-06-30T09:44:43.150Z,40.60
2023-06-30T09:45:48.041Z,40.89
2023-06-30T09:46:55.691Z,40.46
2023-06-30T09:47:59.460Z,40.59
2023-06-30T09:49:06.894Z,40.58
2023-06-30T09:50:12.197Z,40.60
2023-06-30T09:51:20.869Z,40.55
2023-06-30T09:52:29.496Z,40.44
2023-06-30T09:53:39.180Z,40.70
2023-06-30T09:54:44.863Z,40.74
2023-06-30T09:55:52.830Z,40.45
2023-06-30T09:57:03.217Z,39.99
2023-06-30T09:58:06.141Z,39.90
2023-06-30T09:59:09.193Z,40.18
2023-06-30T10:00:25.918Z,40.42
2023-06-30T10:01:38.963Z,40.33
2023-06-30T10:02:42.658Z,40.47
2023-06-30T10:03:50.420Z,40.71
2023-06-30T10:04:53.427Z,40.58
2023-06-30T10:05:57.389Z,40.54
2023-06-30T10:07:01.489Z,40.83
2023-06-30T10:08:05.089Z,40.93
2023-06-30T10:09:08.555Z,41.10
2023-06-30T10:10:13.132Z,41.00
2023-06-30T10:11:17.002Z,41.24
2023-06-30T10:12:20.664Z,41.10
2023-06-30T10:13:24.144Z,41.02
2023-06-30T10:14:36.260Z,41.00
2023-06-30T10:15:39.623Z,41.06
2023-06-30T10:16:42.503Z,40.97
2023-06-30T10:17:45.917Z,41.05
2023-06-30T10:18:49.668Z,41.07
2023-06-30T10:19:53.327Z,41.03
2023-06-30T10:20:56.711Z,40.80
2023-06-30T10:21:59.974Z,40.98
2023-06-30T10:23:03.684Z,40.94
2023-06-30T10:24:07.280Z,40.83
2023-06-30T10:25:10.638Z,40.88
2023-06-30T10:26:15.097Z,41.10
2023-06-30T10:27:20.043Z,40.94
2023-06-30T10:28:23.134Z,40.72
2023-06-30T10:29:26.853Z,40.69
2023-06-30T10:30:30.400Z,40.78
2023-06-30T10:31:34.096Z,40.93
2023-06-30T10:32:37.932Z,40.87
2023-06-30T10:33:41.724Z,40.95
2023-06-30T10:34:45.030Z,41.09
2023-06-30T10:35:48.927Z,41.15
2023-06-30T10:36:52.643Z,41.08
2023-06-30T10:37:57.577Z,41.28
2023-06-30T10:39:01.545Z,41.18
2023-06-30T10:40:29.182Z,40.79
2023-06-30T10:41:32.978Z,40.78
2023-06-30T10:42:39.153Z,40.81
2023-06-30T10:44:03.757Z,40.86
2023-06-30T10:45:08.687Z,40.57
2023-06-30T10:46:12.823Z,40.34
2023-06-30T10:47:16.525Z,40.20
2023-06-30T10:48:19.782Z,40.48
2023-06-30T10:49:35.524Z,40.65
2023-06-30T10:50:43.084Z,40.69
2023-06-30T10:51:48.406Z,40.72
2023-06-30T10:52:52.750Z,40.69
2023-06-30T10:53:56.228Z,40.80
2023-06-30T10:55:06.631Z,40.92
2023-06-30T10:56:10.949Z,40.64
2023-06-30T10:57:21.981Z,40.65
2023-06-30T10:58:25.631Z,40.73
2023-06-30T10:59:29.223Z,40.52
2023-06-30T11:00:33.276Z,40.36
2023-06-30T11:01:39.299Z,40.61
2023-06-30T11:03:01.476Z,40.86
2023-06-30T11:04:10.813Z,40.50
2023-06-30T11:05:23.955Z,40.64
2023-06-30T11:06:27.381Z,40.53
2023-06-30T11:07:31.268Z,40.58
2023-06-30T11:08:34.903Z,40.65
2023-06-30T11:09:52.483Z,40.63
2023-06-30T11:11:03.159Z,40.55
2023-06-30T11:12:06.781Z,40.45
2023-06-30T11:13:13.734Z,40.39
2023-06-30T11:14:23.250Z,40.39
2023-06-30T11:15:53.336Z,40.48
2023-06-30T11:17:09.140Z,40.51
2023-06-30T11:18:16.967Z,40.48
2023-06-30T11:19:26.869Z,40.53
2023-06-30T11:20:33.707Z,40.52
2023-06-30T11:21:41.275Z,40.33
2023-06-30T11:23:17.797Z,40.40
2023-06-30T11:24:21.431Z,40.40
2023-06-30T11:25:24.657Z,40.33
2023-06-30T11:26:28.437Z,40.20
2023-06-30T11:27:32.491Z,39.32
2023-06-30T11:28:35.855Z,39.50
2023-06-30T11:29:39.528Z,38.92
2023-06-30T11:30:43.119Z,39.06
2023-06-30T11:31:46.327Z,39.38
2023-06-30T11:32:49.320Z,39.62
2023-06-30T11:33:52.659Z,39.73
2023-06-30T11:34:57.691Z,39.51
2023-06-30T11:36:01.183Z,39.47
2023-06-30T11:37:07.794Z,39.22
2023-06-30T11:38:10.782Z,38.84
2023-06-30T11:39:15.913Z,38.78
2023-06-30T11:40:20.090Z,38.62
2023-06-30T11:41:23.916Z,38.46
2023-06-30T11:42:27.479Z,38.22
2023-06-30T11:43:34.206Z,38.02
2023-06-30T11:44:38.651Z,37.89
2023-06-30T11:45:42.193Z,37.72
2023-06-30T11:46:45.862Z,37.38
2023-06-30T11:47:56.051Z,37.04
2023-06-30T11:48:59.532Z,36.78
2023-06-30T11:50:09.493Z,36.46
2023-06-30T11:51:15.306Z,36.22
2023-06-30T11:52:20.442Z,35.98
2023-06-30T11:53:24.320Z,35.77
2023-06-30T11:54:32.253Z,35.40
2023-06-30T11:55:35.898Z,35.07
2023-06-30T11:56:42.259Z,34.68
2023-06-30T11:57:49.151Z,34.44
2023-06-30T11:58:52.926Z,34.15
2023-06-30T11:59:56.662Z,33.89
2023-06-30T12:01:00.285Z,33.62
2023-06-30T12:02:07.600Z,33.34
2023-06-30T12:03:10.700Z,32.84
2023-06-30T12:04:13.870Z,32.47
2023-06-30T12:05:18.897Z,32.10
2023-06-30T12:06:26.652Z,31.75
2023-06-30T12:07:29.825Z,31.40
2023-06-30T12:08:32.881Z,30.96
2023-06-30T12:09:36.735Z,30.80
2023-06-30T12:10:40.807Z,30.36
2023-06-30T12:11:44.731Z,30.09
2023-06-30T12:12:58.568Z,29.88
2023-06-30T12:14:08.627Z,29.77
2023-06-30T12:15:13.126Z,29.69
2023-06-30T12:16:16.409Z,29.51
2023-06-30T12:17:20.627Z,29.43
2023-06-30T12:18:39.509Z,29.37
2023-06-30T12:19:43.470Z,29.35
2023-06-30T12:20:46.862Z,29.33
2023-06-30T12:22:01.503Z,29.32
2023-06-30T12:23:06.177Z,29.31
2023-06-30T12:24:09.840Z,29.31
2023-06-30T12:25:14.310Z,29.27
2023-06-30T12:26:17.957Z,29.13
2023-06-30T12:27:21.626Z,29.13
2023-06-30T12:28:24.717Z,29.11
2023-06-30T12:29:32.966Z,29.09
2023-06-30T12:30:36.552Z,29.08
2023-06-30T12:31:43.731Z,29.11
2023-06-30T12:32:47.314Z,29.07
2023-06-30T12:33:55.546Z,29.02
2023-06-30T12:35:07.152Z,28.99
2023-06-30T12:36:11.536Z,28.93
2023-06-30T12:37:17.129Z,28.94
2023-06-30T12:38:20.934Z,28.91
2023-06-30T12:39:24.229Z,28.90
2023-06-30T12:40:29.058Z,28.87
2023-06-30T12:41:32.554Z,28.89
2023-06-30T12:42:36.387Z,28.84
2023-06-30T12:43:40.169Z,28.82
2023-06-30T12:44:43.672Z,28.61
2023-06-30T12:45:47.559Z,28.43
2023-06-30T12:47:09.730Z,28.35
2023-06-30T12:48:12.927Z,28.37
2023-06-30T12:49:16.042Z,28.40
2023-06-30T12:50:21.013Z,28.37
2023-06-30T12:51:24.238Z,28.36
2023-06-30T12:52:27.697Z,28.36
2023-06-30T12:53:31.816Z,28.19
2023-06-30T12:54:35.352Z,28.13
2023-06-30T12:55:38.896Z,28.09
2023-06-30T12:56:42.426Z,27.97
2023-06-30T12:57:45.796Z,27.96
2023-06-30T12:58:49.443Z,27.87
2023-06-30T12:59:53.201Z,27.83
2023-06-30T13:00:59.071Z,27.80
2023-06-30T13:02:02.362Z,27.84
2023-06-30T13:03:06.881Z,27.84
2023-06-30T13:04:10.670Z,27.80
2023-06-30T13:05:14.166Z,27.81
2023-06-30T13:06:17.386Z,27.81
2023-06-30T13:07:20.940Z,27.81
2023-06-30T13:08:24.424Z,27.73
2023-06-30T13:09:28.517Z,27.71
2023-06-30T13:10:32.073Z,27.60
2023-06-30T13:11:35.823Z,27.50
2023-06-30T13:12:42.470Z,27.46
2023-06-30T13:13:46.167Z,27.40
2023-06-30T13:14:49.507Z,27.44
2023-06-30T13:15:54.088Z,27.40
2023-06-30T13:16:57.153Z,27.43
2023-06-30T13:18:00.617Z,27.45
2023-06-30T13:19:04.683Z,27.42
2023-06-30T13:20:10.031Z,27.41
2023-06-30T13:21:14.168Z,27.36
2023-06-30T13:22:17.729Z,27.30
2023-06-30T13:23:35.996Z,27.32
2023-06-30T13:24:40.857Z,27.19
2023-06-30T13:25:44.821Z,27.09
2023-06-30T13:26:49.171Z,27.04
2023-06-30T13:27:52.878Z,27.01
2023-06-30T13:28:56.770Z,26.99
2023-06-30T13:30:00.868Z,26.84
2023-06-30T13:31:06.282Z,26.72
2023-06-30T13:32:10.028Z,26.73
2023-06-30T13:33:13.370Z,26.76
2023-06-30T13:34:16.753Z,26.81
2023-06-30T13:35:21.029Z,26.67
2023-06-30T13:36:26.025Z,26.61
2023-06-30T13:37:30.921Z,26.57
2023-06-30T13:38:34.137Z,26.52
2023-06-30T13:39:40.511Z,26.48
2023-06-30T13:40:44.570Z,26.47
2023-06-30T13:41:49.048Z,26.48
2023-06-30T13:42:52.561Z,26.46
2023-06-30T13:43:55.658Z,26.40
2023-06-30T13:44:59.355Z,26.37
2023-06-30T13:46:03.348Z,26.36
2023-06-30T13:47:07.219Z,26.37
2023-06-30T13:48:10.478Z,26.34
2023-06-30T13:49:14.313Z,26.28
2023-06-30T13:50:17.967Z,26.24
2023-06-30T13:51:22.761Z,26.22
2023-06-30T13:52:25.901Z,26.15
2023-06-30T13:53:28.796Z,26.16
2023-06-30T13:54:32.702Z,26.07
2023-06-30T13:55:36.331Z,26.07
2023-06-30T13:56:39.789Z,26.05